sensor_id;sensor_type;location;lat;lon;timestamp;P1;durP1;ratioP1;P2;durP2;ratioP2
14817;SDS011;7500;57.698;11.986;2023-08-24T00:01:51;5.80;;;1.83;;
14817;SDS011;7500;57.698;11.986;2023-08-24T00:04:18;5.30;;;1.70;;
14817;SDS011;7500;57.698;11.986;2023-08-24T00:06:44;2.37;;;1.40;;
14817;SDS011;7500;57.698;11.986;2023-08-24T00:09:11;3.17;;;1.37;;
14817;SDS011;7500;57.698;11.986;2023-08-24T00:11:51;4.17;;;1.50;;
14817;SDS011;7500;57.698;11.986;2023-08-24T00:14:19;3.83;;;1.70;;
14817;SDS011;7500;57.698;11.986;2023-08-24T00:16:46;3.63;;;1.63;;
14817;SDS011;7500;57.698;11.986;2023-08-24T00:19:12;3.70;;;1.80;;
14817;SDS011;7500;57.698;11.986;2023-08-24T00:21:39;3.23;;;1.53;;
14817;SDS011;7500;57.698;11.986;2023-08-24T00:24:06;3.27;;;1.63;;
14817;SDS011;7500;57.698;11.986;2023-08-24T00:26:33;5.40;;;1.80;;
14817;SDS011;7500;57.698;11.986;2023-08-24T00:29:00;3.70;;;1.60;;
14817;SDS011;7500;57.698;11.986;2023-08-24T00:31:28;2.53;;;1.50;;
14817;SDS011;7500;57.698;11.986;2023-08-24T00:33:55;2.47;;;1.50;;
14817;SDS011;7500;57.698;11.986;2023-08-24T00:36:21;2.57;;;1.47;;
14817;SDS011;7500;57.698;11.986;2023-08-24T00:38:48;3.93;;;1.40;;
14817;SDS011;7500;57.698;11.986;2023-08-24T00:41:16;4.60;;;1.50;;
14817;SDS011;7500;57.698;11.986;2023-08-24T00:43:44;3.47;;;1.37;;
14817;SDS011;7500;57.698;11.986;2023-08-24T00:46:10;3.40;;;1.40;;
14817;SDS011;7500;57.698;11.986;2023-08-24T00:48:38;4.00;;;1.63;;
14817;SDS011;7500;57.698;11.986;2023-08-24T00:51:05;5.20;;;1.50;;
14817;SDS011;7500;57.698;11.986;2023-08-24T00:53:32;4.07;;;1.50;;
14817;SDS011;7500;57.698;11.986;2023-08-24T00:55:59;3.27;;;1.57;;
14817;SDS011;7500;57.698;11.986;2023-08-24T00:58:26;3.90;;;1.53;;
14817;SDS011;7500;57.698;11.986;2023-08-24T01:00:53;2.57;;;1.47;;
14817;SDS011;7500;57.698;11.986;2023-08-24T01:03:21;6.13;;;1.53;;
14817;SDS011;7500;57.698;11.986;2023-08-24T01:05:49;4.63;;;1.40;;
14817;SDS011;7500;57.698;11.986;2023-08-24T01:08:16;2.97;;;1.60;;
14817;SDS011;7500;57.698;11.986;2023-08-24T01:10:46;4.63;;;1.47;;
14817;SDS011;7500;57.698;11.986;2023-08-24T01:13:18;4.90;;;1.60;;
14817;SDS011;7500;57.698;11.986;2023-08-24T01:15:48;6.00;;;1.57;;
14817;SDS011;7500;57.698;11.986;2023-08-24T01:18:17;3.67;;;1.70;;
14817;SDS011;7500;57.698;11.986;2023-08-24T01:20:45;4.83;;;1.40;;
14817;SDS011;7500;57.698;11.986;2023-08-24T01:23:18;5.47;;;1.60;;
14817;SDS011;7500;57.698;11.986;2023-08-24T01:25:48;6.57;;;1.93;;
14817;SDS011;7500;57.698;11.986;2023-08-24T01:28:19;5.07;;;1.90;;
14817;SDS011;7500;57.698;11.986;2023-08-24T01:30:46;6.50;;;2.10;;
14817;SDS011;7500;57.698;11.986;2023-08-24T01:33:13;5.27;;;1.63;;
14817;SDS011;7500;57.698;11.986;2023-08-24T01:35:40;8.50;;;1.97;;
14817;SDS011;7500;57.698;11.986;2023-08-24T01:38:07;8.50;;;1.73;;
14817;SDS011;7500;57.698;11.986;2023-08-24T01:40:39;5.80;;;1.60;;
14817;SDS011;7500;57.698;11.986;2023-08-24T01:43:09;8.87;;;2.03;;
14817;SDS011;7500;57.698;11.986;2023-08-24T01:45:37;9.90;;;2.10;;
14817;SDS011;7500;57.698;11.986;2023-08-24T01:48:05;8.53;;;1.90;;
14817;SDS011;7500;57.698;11.986;2023-08-24T01:50:32;7.30;;;2.00;;
14817;SDS011;7500;57.698;11.986;2023-08-24T01:52:59;9.53;;;2.20;;
14817;SDS011;7500;57.698;11.986;2023-08-24T01:55:26;8.17;;;2.27;;
14817;SDS011;7500;57.698;11.986;2023-08-24T01:57:52;5.77;;;1.57;;
14817;SDS011;7500;57.698;11.986;2023-08-24T02:00:19;10.77;;;1.90;;
14817;SDS011;7500;57.698;11.986;2023-08-24T02:02:47;10.50;;;1.97;;
14817;SDS011;7500;57.698;11.986;2023-08-24T02:05:14;12.43;;;2.77;;
14817;SDS011;7500;57.698;11.986;2023-08-24T02:07:40;10.57;;;2.40;;
14817;SDS011;7500;57.698;11.986;2023-08-24T02:10:07;9.63;;;2.40;;
14817;SDS011;7500;57.698;11.986;2023-08-24T02:12:34;11.80;;;2.50;;
14817;SDS011;7500;57.698;11.986;2023-08-24T02:15:00;7.97;;;2.30;;
14817;SDS011;7500;57.698;11.986;2023-08-24T02:17:27;11.00;;;2.53;;
14817;SDS011;7500;57.698;11.986;2023-08-24T02:19:55;5.20;;;1.80;;
14817;SDS011;7500;57.698;11.986;2023-08-24T02:22:22;11.33;;;2.20;;
14817;SDS011;7500;57.698;11.986;2023-08-24T02:24:49;11.27;;;2.33;;
14817;SDS011;7500;57.698;11.986;2023-08-24T02:27:15;7.67;;;2.03;;
14817;SDS011;7500;57.698;11.986;2023-08-24T02:29:42;11.23;;;2.27;;
14817;SDS011;7500;57.698;11.986;2023-08-24T02:32:09;9.47;;;2.10;;
14817;SDS011;7500;57.698;11.986;2023-08-24T02:34:35;9.73;;;2.37;;
14817;SDS011;7500;57.698;11.986;2023-08-24T02:37:04;8.40;;;2.03;;
14817;SDS011;7500;57.698;11.986;2023-08-24T02:39:30;9.47;;;2.90;;
14817;SDS011;7500;57.698;11.986;2023-08-24T02:41:57;9.40;;;2.07;;
14817;SDS011;7500;57.698;11.986;2023-08-24T02:44:23;12.67;;;2.30;;
14817;SDS011;7500;57.698;11.986;2023-08-24T02:46:50;10.00;;;2.13;;
14817;SDS011;7500;57.698;11.986;2023-08-24T02:49:17;6.70;;;2.07;;
14817;SDS011;7500;57.698;11.986;2023-08-24T02:51:43;9.87;;;2.23;;
14817;SDS011;7500;57.698;11.986;2023-08-24T02:54:11;10.10;;;2.00;;
14817;SDS011;7500;57.698;11.986;2023-08-24T02:56:38;7.90;;;2.13;;
14817;SDS011;7500;57.698;11.986;2023-08-24T02:59:05;8.43;;;2.23;;
14817;SDS011;7500;57.698;11.986;2023-08-24T03:01:32;12.90;;;2.50;;
14817;SDS011;7500;57.698;11.986;2023-08-24T03:03:59;12.47;;;2.67;;
14817;SDS011;7500;57.698;11.986;2023-08-24T03:06:25;9.10;;;2.03;;
14817;SDS011;7500;57.698;11.986;2023-08-24T03:08:52;9.63;;;2.20;;
14817;SDS011;7500;57.698;11.986;2023-08-24T03:11:20;6.90;;;2.20;;
14817;SDS011;7500;57.698;11.986;2023-08-24T03:13:47;10.83;;;2.43;;
14817;SDS011;7500;57.698;11.986;2023-08-24T03:16:14;8.27;;;2.53;;
14817;SDS011;7500;57.698;11.986;2023-08-24T03:18:41;8.87;;;2.00;;
14817;SDS011;7500;57.698;11.986;2023-08-24T03:21:07;10.83;;;2.20;;
14817;SDS011;7500;57.698;11.986;2023-08-24T03:23:35;8.77;;;2.40;;
14817;SDS011;7500;57.698;11.986;2023-08-24T03:26:01;12.57;;;2.50;;
14817;SDS011;7500;57.698;11.986;2023-08-24T03:28:30;11.53;;;2.30;;
14817;SDS011;7500;57.698;11.986;2023-08-24T03:30:56;9.77;;;2.60;;
14817;SDS011;7500;57.698;11.986;2023-08-24T03:33:23;9.13;;;2.40;;
14817;SDS011;7500;57.698;11.986;2023-08-24T03:35:50;10.97;;;3.13;;
14817;SDS011;7500;57.698;11.986;2023-08-24T03:38:17;12.53;;;2.50;;
14817;SDS011;7500;57.698;11.986;2023-08-24T03:40:43;8.83;;;2.33;;
14817;SDS011;7500;57.698;11.986;2023-08-24T03:43:10;9.93;;;2.37;;
14817;SDS011;7500;57.698;11.986;2023-08-24T03:45:38;12.43;;;2.47;;
14817;SDS011;7500;57.698;11.986;2023-08-24T03:48:05;10.13;;;2.53;;
14817;SDS011;7500;57.698;11.986;2023-08-24T03:50:32;9.17;;;2.57;;
14817;SDS011;7500;57.698;11.986;2023-08-24T03:52:58;9.83;;;2.53;;
14817;SDS011;7500;57.698;11.986;2023-08-24T03:55:25;13.40;;;2.87;;
14817;SDS011;7500;57.698;11.986;2023-08-24T03:57:52;9.30;;;2.40;;
14817;SDS011;7500;57.698;11.986;2023-08-24T04:00:19;15.07;;;2.50;;
14817;SDS011;7500;57.698;11.986;2023-08-24T04:02:47;13.60;;;2.63;;
14817;SDS011;7500;57.698;11.986;2023-08-24T04:05:14;9.57;;;2.30;;
14817;SDS011;7500;57.698;11.986;2023-08-24T04:07:41;12.87;;;2.43;;
14817;SDS011;7500;57.698;11.986;2023-08-24T04:10:08;9.27;;;2.53;;
14817;SDS011;7500;57.698;11.986;2023-08-24T04:12:35;10.20;;;2.27;;
14817;SDS011;7500;57.698;11.986;2023-08-24T04:15:01;7.83;;;2.93;;
14817;SDS011;7500;57.698;11.986;2023-08-24T04:17:28;7.70;;;2.10;;
14817;SDS011;7500;57.698;11.986;2023-08-24T04:20:09;10.97;;;2.60;;
14817;SDS011;7500;57.698;11.986;2023-08-24T04:22:36;10.87;;;2.43;;
14817;SDS011;7500;57.698;11.986;2023-08-24T04:25:03;9.30;;;2.37;;
14817;SDS011;7500;57.698;11.986;2023-08-24T04:27:31;11.67;;;2.30;;
14817;SDS011;7500;57.698;11.986;2023-08-24T04:29:58;11.63;;;2.50;;
14817;SDS011;7500;57.698;11.986;2023-08-24T04:32:25;8.53;;;2.13;;
14817;SDS011;7500;57.698;11.986;2023-08-24T04:34:52;13.47;;;2.77;;
14817;SDS011;7500;57.698;11.986;2023-08-24T04:37:20;13.03;;;2.40;;
14817;SDS011;7500;57.698;11.986;2023-08-24T04:39:47;9.80;;;2.30;;
14817;SDS011;7500;57.698;11.986;2023-08-24T04:42:14;10.80;;;2.40;;
14817;SDS011;7500;57.698;11.986;2023-08-24T04:44:40;10.50;;;2.20;;
14817;SDS011;7500;57.698;11.986;2023-08-24T04:47:07;11.67;;;2.50;;
14817;SDS011;7500;57.698;11.986;2023-08-24T04:49:35;8.17;;;2.37;;
14817;SDS011;7500;57.698;11.986;2023-08-24T04:52:02;7.33;;;2.37;;
14817;SDS011;7500;57.698;11.986;2023-08-24T04:54:30;8.87;;;2.30;;
14817;SDS011;7500;57.698;11.986;2023-08-24T04:56:57;10.80;;;2.40;;
14817;SDS011;7500;57.698;11.986;2023-08-24T04:59:23;12.37;;;2.43;;
14817;SDS011;7500;57.698;11.986;2023-08-24T05:01:50;9.83;;;2.43;;
14817;SDS011;7500;57.698;11.986;2023-08-24T05:04:17;10.20;;;2.30;;
14817;SDS011;7500;57.698;11.986;2023-08-24T05:06:43;10.53;;;2.53;;
14817;SDS011;7500;57.698;11.986;2023-08-24T05:09:10;11.07;;;2.47;;
14817;SDS011;7500;57.698;11.986;2023-08-24T05:11:38;10.93;;;2.30;;
14817;SDS011;7500;57.698;11.986;2023-08-24T05:14:04;11.33;;;2.50;;
14817;SDS011;7500;57.698;11.986;2023-08-24T05:16:31;13.17;;;2.60;;
14817;SDS011;7500;57.698;11.986;2023-08-24T05:18:57;12.17;;;2.63;;
14817;SDS011;7500;57.698;11.986;2023-08-24T05:21:24;9.60;;;2.00;;
14817;SDS011;7500;57.698;11.986;2023-08-24T05:23:51;9.67;;;2.30;;
14817;SDS011;7500;57.698;11.986;2023-08-24T05:26:17;9.10;;;2.43;;
14817;SDS011;7500;57.698;11.986;2023-08-24T05:28:49;11.40;;;2.60;;
14817;SDS011;7500;57.698;11.986;2023-08-24T05:31:15;9.30;;;2.20;;
14817;SDS011;7500;57.698;11.986;2023-08-24T05:33:42;11.10;;;2.73;;
14817;SDS011;7500;57.698;11.986;2023-08-24T05:36:09;12.30;;;2.80;;
14817;SDS011;7500;57.698;11.986;2023-08-24T05:38:35;13.50;;;3.10;;
14817;SDS011;7500;57.698;11.986;2023-08-24T05:41:02;11.10;;;2.63;;
14817;SDS011;7500;57.698;11.986;2023-08-24T05:43:28;18.08;;;3.35;;
14817;SDS011;7500;57.698;11.986;2023-08-24T05:45:56;14.97;;;3.13;;
14817;SDS011;7500;57.698;11.986;2023-08-24T05:48:23;18.40;;;3.63;;
14817;SDS011;7500;57.698;11.986;2023-08-24T05:50:49;14.10;;;3.10;;
14817;SDS011;7500;57.698;11.986;2023-08-24T05:53:16;14.90;;;3.03;;
14817;SDS011;7500;57.698;11.986;2023-08-24T05:55:42;11.90;;;2.87;;
14817;SDS011;7500;57.698;11.986;2023-08-24T05:58:09;16.43;;;2.80;;
14817;SDS011;7500;57.698;11.986;2023-08-24T06:00:36;17.23;;;2.83;;
14817;SDS011;7500;57.698;11.986;2023-08-24T06:03:04;17.53;;;3.60;;
14817;SDS011;7500;57.698;11.986;2023-08-24T06:05:30;12.93;;;3.00;;
14817;SDS011;7500;57.698;11.986;2023-08-24T06:07:57;6.07;;;2.30;;
14817;SDS011;7500;57.698;11.986;2023-08-24T06:10:24;10.23;;;2.53;;
14817;SDS011;7500;57.698;11.986;2023-08-24T06:12:51;13.00;;;3.00;;
14817;SDS011;7500;57.698;11.986;2023-08-24T06:15:18;14.17;;;3.07;;
14817;SDS011;7500;57.698;11.986;2023-08-24T06:17:48;12.37;;;2.50;;
14817;SDS011;7500;57.698;11.986;2023-08-24T06:20:17;11.80;;;2.30;;
14817;SDS011;7500;57.698;11.986;2023-08-24T06:22:44;15.73;;;3.27;;
14817;SDS011;7500;57.698;11.986;2023-08-24T06:25:10;16.10;;;3.37;;
14817;SDS011;7500;57.698;11.986;2023-08-24T06:27:37;13.03;;;2.43;;
14817;SDS011;7500;57.698;11.986;2023-08-24T06:30:04;13.00;;;2.83;;
14817;SDS011;7500;57.698;11.986;2023-08-24T06:32:31;11.13;;;2.40;;
14817;SDS011;7500;57.698;11.986;2023-08-24T06:34:57;10.57;;;2.50;;
14817;SDS011;7500;57.698;11.986;2023-08-24T06:37:27;8.43;;;2.23;;
14817;SDS011;7500;57.698;11.986;2023-08-24T06:39:53;11.07;;;2.63;;
14817;SDS011;7500;57.698;11.986;2023-08-24T06:42:20;15.53;;;2.77;;
14817;SDS011;7500;57.698;11.986;2023-08-24T06:44:46;10.33;;;2.33;;
14817;SDS011;7500;57.698;11.986;2023-08-24T06:47:15;13.33;;;2.73;;
14817;SDS011;7500;57.698;11.986;2023-08-24T06:49:41;9.13;;;2.40;;
14817;SDS011;7500;57.698;11.986;2023-08-24T06:52:08;8.83;;;2.53;;
14817;SDS011;7500;57.698;11.986;2023-08-24T06:54:36;10.53;;;2.07;;
14817;SDS011;7500;57.698;11.986;2023-08-24T06:57:03;12.87;;;2.50;;
14817;SDS011;7500;57.698;11.986;2023-08-24T06:59:30;10.07;;;2.30;;
14817;SDS011;7500;57.698;11.986;2023-08-24T07:01:56;10.67;;;2.50;;
14817;SDS011;7500;57.698;11.986;2023-08-24T07:04:24;11.57;;;2.40;;
14817;SDS011;7500;57.698;11.986;2023-08-24T07:06:51;14.33;;;2.80;;
14817;SDS011;7500;57.698;11.986;2023-08-24T07:09:18;8.67;;;2.30;;
14817;SDS011;7500;57.698;11.986;2023-08-24T07:11:47;9.30;;;2.20;;
14817;SDS011;7500;57.698;11.986;2023-08-24T07:14:14;9.93;;;2.30;;
14817;SDS011;7500;57.698;11.986;2023-08-24T07:16:40;9.13;;;2.10;;
14817;SDS011;7500;57.698;11.986;2023-08-24T07:19:07;11.30;;;2.67;;
14817;SDS011;7500;57.698;11.986;2023-08-24T07:21:34;8.53;;;2.43;;
14817;SDS011;7500;57.698;11.986;2023-08-24T07:24:00;5.53;;;1.80;;
14817;SDS011;7500;57.698;11.986;2023-08-24T07:26:27;9.97;;;2.33;;
14817;SDS011;7500;57.698;11.986;2023-08-24T07:28:57;9.33;;;2.40;;
14817;SDS011;7500;57.698;11.986;2023-08-24T07:31:23;7.73;;;2.30;;
14817;SDS011;7500;57.698;11.986;2023-08-24T07:33:50;8.97;;;2.13;;
14817;SDS011;7500;57.698;11.986;2023-08-24T07:36:16;9.93;;;2.30;;
14817;SDS011;7500;57.698;11.986;2023-08-24T07:38:44;9.83;;;2.20;;
14817;SDS011;7500;57.698;11.986;2023-08-24T07:41:11;6.47;;;1.90;;
14817;SDS011;7500;57.698;11.986;2023-08-24T07:43:38;10.93;;;2.23;;
14817;SDS011;7500;57.698;11.986;2023-08-24T07:46:06;9.50;;;2.40;;
14817;SDS011;7500;57.698;11.986;2023-08-24T07:48:32;8.63;;;1.93;;
14817;SDS011;7500;57.698;11.986;2023-08-24T07:50:59;8.43;;;2.27;;
14817;SDS011;7500;57.698;11.986;2023-08-24T07:53:26;10.70;;;2.27;;
14817;SDS011;7500;57.698;11.986;2023-08-24T07:55:53;8.53;;;2.40;;
14817;SDS011;7500;57.698;11.986;2023-08-24T07:58:20;5.87;;;1.97;;
14817;SDS011;7500;57.698;11.986;2023-08-24T08:00:49;6.07;;;2.00;;
14817;SDS011;7500;57.698;11.986;2023-08-24T08:03:17;9.47;;;2.67;;
14817;SDS011;7500;57.698;11.986;2023-08-24T08:05:43;8.20;;;2.50;;
14817;SDS011;7500;57.698;11.986;2023-08-24T08:08:10;6.27;;;2.10;;
14817;SDS011;7500;57.698;11.986;2023-08-24T08:10:36;10.47;;;2.20;;
14817;SDS011;7500;57.698;11.986;2023-08-24T08:13:03;10.00;;;2.23;;
14817;SDS011;7500;57.698;11.986;2023-08-24T08:15:29;8.27;;;1.80;;
14817;SDS011;7500;57.698;11.986;2023-08-24T08:17:56;8.63;;;2.20;;
14817;SDS011;7500;57.698;11.986;2023-08-24T08:20:24;9.87;;;2.73;;
14817;SDS011;7500;57.698;11.986;2023-08-24T08:22:51;7.13;;;2.27;;
14817;SDS011;7500;57.698;11.986;2023-08-24T08:25:17;8.93;;;2.30;;
14817;SDS011;7500;57.698;11.986;2023-08-24T08:27:44;8.03;;;2.60;;
14817;SDS011;7500;57.698;11.986;2023-08-24T08:30:11;9.17;;;2.20;;
14817;SDS011;7500;57.698;11.986;2023-08-24T08:32:38;7.03;;;2.23;;
14817;SDS011;7500;57.698;11.986;2023-08-24T08:35:05;8.37;;;2.00;;
14817;SDS011;7500;57.698;11.986;2023-08-24T08:37:33;7.63;;;2.17;;
14817;SDS011;7500;57.698;11.986;2023-08-24T08:40:02;10.83;;;2.47;;
14817;SDS011;7500;57.698;11.986;2023-08-24T08:42:31;14.97;;;2.47;;
14817;SDS011;7500;57.698;11.986;2023-08-24T08:44:58;8.50;;;2.40;;
14817;SDS011;7500;57.698;11.986;2023-08-24T08:47:28;6.60;;;2.17;;
14817;SDS011;7500;57.698;11.986;2023-08-24T08:49:54;10.20;;;2.27;;
14817;SDS011;7500;57.698;11.986;2023-08-24T08:52:21;8.27;;;2.40;;
14817;SDS011;7500;57.698;11.986;2023-08-24T08:54:51;10.07;;;2.23;;
14817;SDS011;7500;57.698;11.986;2023-08-24T08:57:18;5.87;;;2.00;;
14817;SDS011;7500;57.698;11.986;2023-08-24T08:59:45;8.37;;;2.20;;
14817;SDS011;7500;57.698;11.986;2023-08-24T09:02:16;7.47;;;1.73;;
14817;SDS011;7500;57.698;11.986;2023-08-24T09:04:42;6.67;;;2.00;;
14817;SDS011;7500;57.698;11.986;2023-08-24T09:07:11;9.23;;;2.13;;
14817;SDS011;7500;57.698;11.986;2023-08-24T09:09:39;9.60;;;2.20;;
14817;SDS011;7500;57.698;11.986;2023-08-24T09:12:07;7.93;;;2.17;;
14817;SDS011;7500;57.698;11.986;2023-08-24T09:14:34;7.50;;;1.90;;
14817;SDS011;7500;57.698;11.986;2023-08-24T09:17:01;8.70;;;2.27;;
14817;SDS011;7500;57.698;11.986;2023-08-24T09:19:29;8.47;;;2.27;;
14817;SDS011;7500;57.698;11.986;2023-08-24T09:21:56;9.67;;;2.13;;
14817;SDS011;7500;57.698;11.986;2023-08-24T09:24:28;5.60;;;1.83;;
14817;SDS011;7500;57.698;11.986;2023-08-24T09:26:55;7.13;;;1.97;;
14817;SDS011;7500;57.698;11.986;2023-08-24T09:29:23;5.57;;;2.17;;
14817;SDS011;7500;57.698;11.986;2023-08-24T09:31:50;5.57;;;1.60;;
14817;SDS011;7500;57.698;11.986;2023-08-24T09:34:18;7.60;;;1.70;;
14817;SDS011;7500;57.698;11.986;2023-08-24T09:36:45;5.33;;;1.63;;
14817;SDS011;7500;57.698;11.986;2023-08-24T09:39:12;5.50;;;1.97;;
14817;SDS011;7500;57.698;11.986;2023-08-24T09:41:44;5.53;;;1.90;;
14817;SDS011;7500;57.698;11.986;2023-08-24T09:44:10;7.20;;;1.70;;
14817;SDS011;7500;57.698;11.986;2023-08-24T09:46:38;5.55;;;1.90;;
14817;SDS011;7500;57.698;11.986;2023-08-24T09:49:06;5.83;;;1.93;;
14817;SDS011;7500;57.698;11.986;2023-08-24T09:51:33;7.00;;;1.97;;
14817;SDS011;7500;57.698;11.986;2023-08-24T09:54:01;8.57;;;1.90;;
14817;SDS011;7500;57.698;11.986;2023-08-24T09:56:29;4.70;;;1.73;;
14817;SDS011;7500;57.698;11.986;2023-08-24T09:58:58;6.93;;;1.70;;
14817;SDS011;7500;57.698;11.986;2023-08-24T10:01:27;7.60;;;2.00;;
14817;SDS011;7500;57.698;11.986;2023-08-24T10:03:55;5.37;;;1.63;;
14817;SDS011;7500;57.698;11.986;2023-08-24T10:06:23;7.87;;;1.97;;
14817;SDS011;7500;57.698;11.986;2023-08-24T10:08:52;7.43;;;1.90;;
14817;SDS011;7500;57.698;11.986;2023-08-24T10:11:24;7.00;;;1.73;;
14817;SDS011;7500;57.698;11.986;2023-08-24T10:13:53;9.27;;;1.70;;
14817;SDS011;7500;57.698;11.986;2023-08-24T10:16:21;8.77;;;2.93;;
14817;SDS011;7500;57.698;11.986;2023-08-24T10:18:49;8.40;;;2.00;;
14817;SDS011;7500;57.698;11.986;2023-08-24T10:21:18;5.53;;;1.70;;
14817;SDS011;7500;57.698;11.986;2023-08-24T10:23:45;7.50;;;2.10;;
14817;SDS011;7500;57.698;11.986;2023-08-24T10:26:12;6.43;;;2.10;;
14817;SDS011;7500;57.698;11.986;2023-08-24T10:28:40;5.93;;;1.70;;
14817;SDS011;7500;57.698;11.986;2023-08-24T10:31:06;6.33;;;1.70;;
14817;SDS011;7500;57.698;11.986;2023-08-24T10:33:33;11.63;;;2.13;;
14817;SDS011;7500;57.698;11.986;2023-08-24T10:36:03;10.43;;;1.97;;
14817;SDS011;7500;57.698;11.986;2023-08-24T10:38:33;7.63;;;2.07;;
14817;SDS011;7500;57.698;11.986;2023-08-24T10:41:01;5.53;;;1.90;;
14817;SDS011;7500;57.698;11.986;2023-08-24T10:43:29;6.63;;;1.97;;
14817;SDS011;7500;57.698;11.986;2023-08-24T10:45:56;6.63;;;1.60;;
14817;SDS011;7500;57.698;11.986;2023-08-24T10:48:23;8.35;;;2.53;;
14817;SDS011;7500;57.698;11.986;2023-08-24T10:53:39;8.13;;;2.50;;
14817;SDS011;7500;57.698;11.986;2023-08-24T10:56:12;6.27;;;2.33;;
14817;SDS011;7500;57.698;11.986;2023-08-24T10:58:39;6.57;;;1.93;;
14817;SDS011;7500;57.698;11.986;2023-08-24T11:01:05;7.50;;;2.23;;
14817;SDS011;7500;57.698;11.986;2023-08-24T11:03:32;7.40;;;1.83;;
14817;SDS011;7500;57.698;11.986;2023-08-24T11:05:59;8.97;;;2.00;;
14817;SDS011;7500;57.698;11.986;2023-08-24T11:11:14;6.00;;;1.60;;
14817;SDS011;7500;57.698;11.986;2023-08-24T11:13:56;7.00;;;1.70;;
14817;SDS011;7500;57.698;11.986;2023-08-24T11:16:39;5.07;;;1.77;;
14817;SDS011;7500;57.698;11.986;2023-08-24T11:19:06;3.27;;;1.93;;
14817;SDS011;7500;57.698;11.986;2023-08-24T11:21:33;5.20;;;1.90;;
14817;SDS011;7500;57.698;11.986;2023-08-24T11:23:59;7.77;;;1.53;;
14817;SDS011;7500;57.698;11.986;2023-08-24T11:26:28;10.63;;;1.83;;
14817;SDS011;7500;57.698;11.986;2023-08-24T11:28:55;6.13;;;1.73;;
14817;SDS011;7500;57.698;11.986;2023-08-24T11:31:23;4.87;;;1.60;;
14817;SDS011;7500;57.698;11.986;2023-08-24T11:33:53;7.13;;;1.90;;
14817;SDS011;7500;57.698;11.986;2023-08-24T11:36:19;4.00;;;1.63;;
14817;SDS011;7500;57.698;11.986;2023-08-24T11:38:46;5.23;;;1.90;;
14817;SDS011;7500;57.698;11.986;2023-08-24T11:41:13;9.03;;;2.00;;
14817;SDS011;7500;57.698;11.986;2023-08-24T11:43:41;4.63;;;1.40;;
14817;SDS011;7500;57.698;11.986;2023-08-24T11:46:08;5.10;;;1.67;;
14817;SDS011;7500;57.698;11.986;2023-08-24T11:48:34;5.43;;;1.57;;
14817;SDS011;7500;57.698;11.986;2023-08-24T11:51:02;5.53;;;1.90;;
14817;SDS011;7500;57.698;11.986;2023-08-24T11:53:29;3.87;;;1.50;;
14817;SDS011;7500;57.698;11.986;2023-08-24T11:55:57;3.47;;;1.50;;
14817;SDS011;7500;57.698;11.986;2023-08-24T11:58:23;4.37;;;1.70;;
14817;SDS011;7500;57.698;11.986;2023-08-24T12:00:51;2.77;;;1.57;;
14817;SDS011;7500;57.698;11.986;2023-08-24T12:03:18;4.10;;;1.83;;
14817;SDS011;7500;57.698;11.986;2023-08-24T12:05:44;9.73;;;1.87;;
14817;SDS011;7500;57.698;11.986;2023-08-24T12:08:11;4.60;;;1.40;;
14817;SDS011;7500;57.698;11.986;2023-08-24T12:10:41;6.00;;;1.70;;
14817;SDS011;7500;57.698;11.986;2023-08-24T12:13:08;6.07;;;1.83;;
14817;SDS011;7500;57.698;11.986;2023-08-24T12:15:35;5.47;;;1.37;;
14817;SDS011;7500;57.698;11.986;2023-08-24T12:18:10;4.43;;;1.63;;
14817;SDS011;7500;57.698;11.986;2023-08-24T12:20:37;4.60;;;1.60;;
14817;SDS011;7500;57.698;11.986;2023-08-24T12:23:05;4.57;;;1.63;;
14817;SDS011;7500;57.698;11.986;2023-08-24T12:25:35;9.63;;;2.00;;
14817;SDS011;7500;57.698;11.986;2023-08-24T12:28:08;7.50;;;1.90;;
14817;SDS011;7500;57.698;11.986;2023-08-24T12:30:45;6.57;;;1.77;;
14817;SDS011;7500;57.698;11.986;2023-08-24T12:33:22;7.77;;;1.70;;
14817;SDS011;7500;57.698;11.986;2023-08-24T12:35:49;10.00;;;1.70;;
14817;SDS011;7500;57.698;11.986;2023-08-24T12:38:15;3.67;;;1.33;;
14817;SDS011;7500;57.698;11.986;2023-08-24T12:40:42;3.93;;;1.40;;
14817;SDS011;7500;57.698;11.986;2023-08-24T12:43:08;4.73;;;1.33;;
14817;SDS011;7500;57.698;11.986;2023-08-24T12:45:35;4.13;;;1.57;;
14817;SDS011;7500;57.698;11.986;2023-08-24T12:48:03;4.83;;;1.23;;
14817;SDS011;7500;57.698;11.986;2023-08-24T12:50:31;6.53;;;1.60;;
14817;SDS011;7500;57.698;11.986;2023-08-24T12:52:57;3.10;;;1.20;;
14817;SDS011;7500;57.698;11.986;2023-08-24T12:55:25;8.67;;;1.87;;
14817;SDS011;7500;57.698;11.986;2023-08-24T12:57:51;6.83;;;1.77;;
14817;SDS011;7500;57.698;11.986;2023-08-24T13:00:18;4.50;;;1.53;;
14817;SDS011;7500;57.698;11.986;2023-08-24T13:02:45;6.27;;;1.50;;
14817;SDS011;7500;57.698;11.986;2023-08-24T13:05:11;5.80;;;1.57;;
14817;SDS011;7500;57.698;11.986;2023-08-24T13:07:39;6.43;;;1.40;;
14817;SDS011;7500;57.698;11.986;2023-08-24T13:10:06;6.40;;;1.53;;
14817;SDS011;7500;57.698;11.986;2023-08-24T13:12:34;5.97;;;1.63;;
14817;SDS011;7500;57.698;11.986;2023-08-24T13:15:00;4.23;;;1.60;;
14817;SDS011;7500;57.698;11.986;2023-08-24T13:17:27;5.40;;;1.77;;
14817;SDS011;7500;57.698;11.986;2023-08-24T13:19:54;4.43;;;1.67;;
14817;SDS011;7500;57.698;11.986;2023-08-24T13:22:20;5.00;;;1.33;;
14817;SDS011;7500;57.698;11.986;2023-08-24T13:24:48;6.17;;;1.60;;
14817;SDS011;7500;57.698;11.986;2023-08-24T13:27:15;4.93;;;1.33;;
14817;SDS011;7500;57.698;11.986;2023-08-24T13:29:42;3.37;;;1.33;;
14817;SDS011;7500;57.698;11.986;2023-08-24T13:32:08;9.13;;;1.70;;
14817;SDS011;7500;57.698;11.986;2023-08-24T13:34:35;6.17;;;1.50;;
14817;SDS011;7500;57.698;11.986;2023-08-24T13:37:02;4.97;;;1.40;;
14817;SDS011;7500;57.698;11.986;2023-08-24T13:39:29;3.90;;;1.30;;
14817;SDS011;7500;57.698;11.986;2023-08-24T13:41:57;7.33;;;1.47;;
14817;SDS011;7500;57.698;11.986;2023-08-24T13:44:24;5.07;;;1.37;;
14817;SDS011;7500;57.698;11.986;2023-08-24T13:46:50;4.23;;;1.30;;
14817;SDS011;7500;57.698;11.986;2023-08-24T13:49:17;7.00;;;1.57;;
14817;SDS011;7500;57.698;11.986;2023-08-24T13:51:43;5.30;;;1.40;;
14817;SDS011;7500;57.698;11.986;2023-08-24T13:54:13;5.33;;;1.60;;
14817;SDS011;7500;57.698;11.986;2023-08-24T13:56:39;5.20;;;1.53;;
14817;SDS011;7500;57.698;11.986;2023-08-24T13:59:07;3.73;;;1.60;;
14817;SDS011;7500;57.698;11.986;2023-08-24T14:01:34;5.17;;;1.53;;
14817;SDS011;7500;57.698;11.986;2023-08-24T14:04:01;2.90;;;1.40;;
14817;SDS011;7500;57.698;11.986;2023-08-24T14:06:27;4.87;;;1.30;;
14817;SDS011;7500;57.698;11.986;2023-08-24T14:08:54;5.40;;;1.53;;
14817;SDS011;7500;57.698;11.986;2023-08-24T14:11:21;3.13;;;1.20;;
14817;SDS011;7500;57.698;11.986;2023-08-24T14:13:47;5.60;;;1.50;;
14817;SDS011;7500;57.698;11.986;2023-08-24T14:16:15;7.37;;;1.97;;
14817;SDS011;7500;57.698;11.986;2023-08-24T14:18:41;7.40;;;1.60;;
14817;SDS011;7500;57.698;11.986;2023-08-24T14:21:08;3.37;;;1.50;;
14817;SDS011;7500;57.698;11.986;2023-08-24T14:23:35;5.13;;;1.40;;
14817;SDS011;7500;57.698;11.986;2023-08-24T14:26:02;3.90;;;1.50;;
14817;SDS011;7500;57.698;11.986;2023-08-24T14:31:10;6.80;;;1.60;;
14817;SDS011;7500;57.698;11.986;2023-08-24T14:33:38;2.37;;;1.37;;
14817;SDS011;7500;57.698;11.986;2023-08-24T14:36:04;6.40;;;1.50;;
14817;SDS011;7500;57.698;11.986;2023-08-24T14:38:31;4.13;;;1.43;;
14817;SDS011;7500;57.698;11.986;2023-08-24T14:40:58;4.90;;;1.37;;
14817;SDS011;7500;57.698;11.986;2023-08-24T14:43:25;9.17;;;2.47;;
14817;SDS011;7500;57.698;11.986;2023-08-24T14:45:52;4.87;;;2.03;;
14817;SDS011;7500;57.698;11.986;2023-08-24T14:48:19;4.80;;;1.93;;
14817;SDS011;7500;57.698;11.986;2023-08-24T14:50:46;3.90;;;1.30;;
14817;SDS011;7500;57.698;11.986;2023-08-24T14:53:13;3.97;;;1.30;;